createdAt,value
2018-03-31T00:02:06.450Z,3.70
2018-03-31T00:04:32.605Z,3.65
2018-03-31T00:06:58.729Z,5.85
2018-03-31T00:09:25.093Z,3.62
2018-03-31T00:11:51.209Z,4.35
2018-03-31T00:14:17.327Z,3.50
2018-03-31T00:16:44.177Z,3.60
2018-03-31T00:19:10.358Z,3.50
2018-03-31T00:21:36.502Z,4.28
2018-03-31T00:24:02.638Z,4.07
2018-03-31T00:26:28.917Z,4.00
2018-03-31T00:28:55.794Z,4.00
2018-03-31T00:31:21.917Z,4.00
2018-03-31T00:33:48.848Z,4.25
2018-03-31T00:36:14.975Z,4.35
2018-03-31T00:38:41.106Z,5.57
2018-03-31T00:41:07.258Z,6.10
2018-03-31T00:43:34.122Z,6.22
2018-03-31T00:46:01.084Z,6.93
2018-03-31T00:48:27.264Z,7.18
2018-03-31T00:50:53.350Z,6.93
2018-03-31T00:53:19.465Z,6.35
2018-03-31T00:55:45.597Z,6.80
2018-03-31T00:58:11.713Z,7.53
2018-03-31T01:00:37.838Z,7.28
2018-03-31T01:03:03.978Z,8.40
2018-03-31T01:05:30.109Z,7.28
2018-03-31T01:07:56.984Z,6.55
2018-03-31T01:10:23.110Z,8.40
2018-03-31T01:12:49.307Z,7.50
2018-03-31T01:15:15.476Z,6.85
2018-03-31T01:17:42.361Z,8.18
2018-03-31T01:20:08.510Z,7.90
2018-03-31T01:22:34.664Z,8.63
2018-03-31T01:25:00.777Z,7.62
2018-03-31T01:27:26.890Z,7.97
2018-03-31T01:29:53.024Z,9.10
2018-03-31T01:32:19.885Z,8.27
2018-03-31T01:34:45.981Z,9.27
2018-03-31T01:37:12.097Z,7.82
2018-03-31T01:39:38.210Z,8.50
2018-03-31T01:42:04.347Z,8.63
2018-03-31T01:44:31.208Z,9.15
2018-03-31T01:46:58.057Z,8.43
2018-03-31T01:49:24.168Z,8.57
2018-03-31T01:51:50.289Z,8.50
2018-03-31T01:54:18.078Z,8.25
2018-03-31T01:56:44.202Z,7.47
2018-03-31T01:59:10.327Z,7.22
2018-03-31T02:01:38.226Z,9.95
2018-03-31T02:04:04.362Z,9.43
2018-03-31T02:06:30.507Z,7.50
2018-03-31T02:08:56.595Z,7.57
2018-03-31T02:11:22.729Z,8.18
2018-03-31T02:13:49.068Z,8.52
2018-03-31T02:16:16.378Z,8.60
2018-03-31T02:18:42.506Z,9.60
2018-03-31T02:21:08.653Z,9.45
2018-03-31T02:23:34.779Z,8.60
2018-03-31T02:26:00.904Z,8.82
2018-03-31T02:28:27.061Z,8.95
2018-03-31T02:30:53.178Z,9.13
2018-03-31T02:33:19.316Z,10.05
2018-03-31T02:35:45.433Z,10.07
2018-03-31T02:38:12.577Z,9.90
2018-03-31T02:40:38.710Z,9.75
2018-03-31T02:43:04.845Z,9.70
2018-03-31T02:45:30.970Z,8.60
2018-03-31T02:47:57.069Z,10.18
2018-03-31T02:50:23.184Z,9.35
2018-03-31T02:52:49.288Z,9.23
2018-03-31T02:55:15.480Z,9.23
2018-03-31T02:57:41.622Z,10.18
2018-03-31T03:00:07.739Z,10.65
2018-03-31T03:02:34.613Z,9.93
2018-03-31T03:05:00.725Z,10.10
2018-03-31T03:07:27.617Z,10.93
2018-03-31T03:09:53.722Z,12.35
2018-03-31T03:12:20.594Z,12.35
2018-03-31T03:14:46.725Z,11.60
2018-03-31T03:17:13.590Z,12.50
2018-03-31T03:19:39.720Z,12.37
2018-03-31T03:22:05.846Z,12.75
2018-03-31T03:24:31.985Z,12.93
2018-03-31T03:26:58.125Z,12.73
2018-03-31T03:29:24.261Z,13.95
2018-03-31T03:31:51.116Z,14.73
2018-03-31T03:34:17.225Z,14.07
2018-03-31T03:36:43.353Z,16.15
2018-03-31T03:39:09.482Z,15.35
2018-03-31T03:41:35.601Z,15.10
2018-03-31T03:44:01.802Z,14.05
2018-03-31T03:46:29.372Z,15.18
2018-03-31T03:48:58.110Z,15.60
2018-03-31T03:51:24.959Z,14.45
2018-03-31T03:53:51.089Z,14.40
2018-03-31T03:56:17.197Z,15.38
2018-03-31T03:58:43.348Z,16.35
2018-03-31T04:01:10.197Z,15.93
2018-03-31T04:03:37.064Z,16.58
2018-03-31T04:06:03.240Z,17.10
2018-03-31T04:08:29.380Z,17.37
2018-03-31T04:10:55.613Z,18.48
2018-03-31T04:13:21.733Z,17.30
2018-03-31T04:15:48.912Z,18.35
2018-03-31T04:18:15.196Z,19.20
2018-03-31T04:20:41.297Z,19.42
2018-03-31T04:23:07.407Z,20.08
2018-03-31T04:25:34.257Z,20.25
2018-03-31T04:28:00.379Z,19.75
2018-03-31T04:30:26.505Z,20.70
2018-03-31T04:32:52.617Z,19.42
2018-03-31T04:35:18.726Z,19.80
2018-03-31T04:37:44.831Z,18.62
2018-03-31T04:40:11.690Z,20.65
2018-03-31T04:42:37.798Z,19.62
2018-03-31T04:45:04.213Z,20.48
2018-03-31T04:47:30.362Z,19.83
2018-03-31T04:49:56.494Z,18.52
2018-03-31T04:52:22.618Z,20.67
2018-03-31T04:54:48.770Z,19.73
2018-03-31T04:57:15.257Z,19.45
2018-03-31T04:59:41.394Z,18.00
2018-03-31T05:02:07.545Z,17.92
2018-03-31T05:04:34.429Z,19.02
2018-03-31T05:07:00.546Z,17.85
2018-03-31T05:09:26.708Z,16.23
2018-03-31T05:11:52.905Z,18.75
2018-03-31T05:14:19.042Z,18.30
2018-03-31T05:16:45.157Z,18.00
2018-03-31T05:19:11.722Z,18.42
2018-03-31T05:21:37.829Z,17.60
2018-03-31T05:24:03.941Z,17.58
2018-03-31T05:26:30.075Z,18.85
2018-03-31T05:28:56.938Z,17.83
2018-03-31T05:31:23.106Z,20.45
2018-03-31T05:33:49.982Z,20.35
2018-03-31T05:36:16.117Z,20.00
2018-03-31T05:38:42.225Z,21.58
2018-03-31T05:41:08.360Z,21.42
2018-03-31T05:43:42.209Z,22.85
2018-03-31T05:46:08.325Z,22.08
2018-03-31T05:48:34.421Z,21.30
2018-03-31T05:51:01.145Z,23.12
2018-03-31T05:53:28.134Z,23.27
2018-03-31T05:55:54.994Z,22.35
2018-03-31T05:58:21.861Z,22.05
2018-03-31T06:00:47.997Z,23.20
2018-03-31T06:03:14.141Z,24.10
2018-03-31T06:05:40.387Z,23.45
2018-03-31T06:08:06.494Z,25.48
2018-03-31T06:10:34.583Z,23.77
2018-03-31T06:13:02.213Z,24.77
2018-03-31T06:15:28.337Z,23.50
2018-03-31T06:17:54.480Z,24.52
2018-03-31T06:20:20.602Z,27.08
2018-03-31T06:22:47.445Z,26.10
2018-03-31T06:25:13.557Z,26.00
2018-03-31T06:27:40.431Z,29.80
2018-03-31T06:30:06.702Z,42.47
2018-03-31T06:32:32.891Z,45.47
2018-03-31T06:34:59.050Z,46.17
2018-03-31T06:37:25.944Z,44.47
2018-03-31T06:39:52.034Z,38.17
2018-03-31T06:42:18.161Z,32.37
2018-03-31T06:44:44.277Z,23.30
2018-03-31T06:47:10.385Z,23.83
2018-03-31T06:49:37.292Z,21.00
2018-03-31T06:52:04.952Z,18.30
2018-03-31T06:54:31.585Z,17.83
2018-03-31T06:56:57.726Z,15.68
2018-03-31T06:59:23.849Z,17.23
2018-03-31T07:01:50.118Z,16.55
2018-03-31T07:04:16.253Z,16.70
2018-03-31T07:06:42.517Z,17.00
2018-03-31T07:09:08.970Z,15.60
2018-03-31T07:11:35.198Z,16.27
2018-03-31T07:14:02.079Z,15.70
2018-03-31T07:16:28.218Z,15.63
2018-03-31T07:18:54.429Z,14.07
2018-03-31T07:21:20.528Z,14.97
2018-03-31T07:23:46.661Z,15.47
2018-03-31T07:26:12.833Z,13.33
2018-03-31T07:28:38.968Z,14.70
2018-03-31T07:31:05.101Z,12.80
2018-03-31T07:33:31.189Z,14.43
2018-03-31T07:35:58.050Z,14.50
2018-03-31T07:38:24.199Z,14.83
2018-03-31T07:40:50.461Z,13.90
2018-03-31T07:43:16.570Z,12.23
2018-03-31T07:45:42.697Z,14.93
2018-03-31T07:48:09.557Z,13.10
2018-03-31T07:50:35.694Z,13.00
2018-03-31T07:53:01.994Z,12.50
2018-03-31T07:55:28.109Z,12.47
2018-03-31T07:57:57.654Z,13.63
2018-03-31T08:00:24.550Z,11.87
2018-03-31T08:02:51.377Z,10.40
2018-03-31T08:05:17.473Z,10.00
2018-03-31T08:07:43.561Z,10.97
2018-03-31T08:10:11.825Z,10.10
2018-03-31T08:12:37.953Z,8.50
2018-03-31T08:15:04.117Z,9.03
2018-03-31T08:17:30.237Z,8.87
2018-03-31T08:19:56.346Z,9.07
2018-03-31T08:22:22.556Z,9.57
2018-03-31T08:24:49.528Z,8.47
2018-03-31T08:27:15.686Z,8.33
2018-03-31T08:29:41.853Z,7.17
2018-03-31T08:32:07.993Z,7.00
2018-03-31T08:34:36.979Z,6.17
2018-03-31T08:37:03.133Z,7.40
2018-03-31T08:39:29.279Z,7.00
2018-03-31T08:41:56.457Z,5.57
2018-03-31T08:44:22.670Z,6.10
2018-03-31T08:46:48.816Z,6.20
2018-03-31T08:49:14.963Z,6.73
2018-03-31T08:51:41.069Z,9.30
2018-03-31T08:54:07.885Z,6.80
2018-03-31T08:56:34.045Z,8.97
2018-03-31T08:59:00.161Z,8.00
2018-03-31T09:01:27.008Z,7.90
2018-03-31T09:03:53.168Z,7.50
2018-03-31T09:06:19.250Z,8.07
2018-03-31T09:08:45.373Z,9.37
2018-03-31T09:11:11.483Z,6.20
2018-03-31T09:13:38.342Z,7.20
2018-03-31T09:16:04.489Z,7.57
2018-03-31T09:18:30.610Z,8.20
2018-03-31T09:20:57.339Z,6.80
2018-03-31T09:23:23.441Z,8.10
2018-03-31T09:25:49.627Z,8.17
2018-03-31T09:28:16.490Z,7.73
2018-03-31T09:30:42.724Z,8.90
2018-03-31T09:33:08.846Z,7.07
2018-03-31T09:38:31.455Z,5.23
2018-03-31T09:40:57.555Z,6.30
2018-03-31T09:43:23.703Z,6.60
2018-03-31T09:45:49.841Z,7.27
2018-03-31T09:48:15.958Z,6.80
2018-03-31T09:50:42.062Z,6.57
2018-03-31T09:53:11.293Z,6.70
2018-03-31T09:55:38.150Z,6.47
2018-03-31T09:58:05.029Z,5.67
2018-03-31T10:00:34.994Z,4.47
2018-03-31T10:03:01.915Z,5.00
2018-03-31T10:05:29.029Z,5.23
2018-03-31T10:07:55.130Z,4.50
2018-03-31T10:10:21.233Z,5.20
2018-03-31T10:12:47.405Z,3.90
2018-03-31T10:15:13.493Z,3.93
2018-03-31T10:17:39.693Z,3.83
2018-03-31T10:20:05.797Z,4.30
2018-03-31T10:22:31.966Z,3.60
2018-03-31T10:24:58.055Z,3.77
2018-03-31T10:27:24.214Z,4.20
2018-03-31T10:29:52.394Z,3.70
2018-03-31T10:32:18.503Z,3.80
2018-03-31T10:34:45.365Z,3.97
2018-03-31T10:37:12.229Z,3.90
2018-03-31T10:39:39.113Z,4.50
2018-03-31T10:42:05.238Z,4.20
2018-03-31T10:44:32.082Z,4.77
2018-03-31T10:46:58.178Z,4.00
2018-03-31T10:49:28.651Z,3.83
2018-03-31T10:51:55.065Z,4.30
2018-03-31T10:54:21.194Z,4.00
2018-03-31T10:56:47.323Z,3.70
2018-03-31T10:59:13.460Z,4.10
2018-03-31T11:01:39.608Z,3.57
2018-03-31T11:04:05.725Z,4.07
2018-03-31T11:06:36.541Z,4.00
2018-03-31T11:09:02.681Z,4.70
2018-03-31T11:11:28.797Z,4.10
2018-03-31T11:13:54.909Z,3.50
2018-03-31T11:16:21.086Z,4.50
2018-03-31T11:18:47.213Z,4.13
2018-03-31T11:21:13.314Z,4.30
2018-03-31T11:23:42.865Z,4.03
2018-03-31T11:26:09.146Z,3.80
2018-03-31T11:28:36.022Z,5.63
2018-03-31T11:31:02.874Z,4.57
2018-03-31T11:33:29.738Z,3.87
2018-03-31T11:35:55.821Z,4.43
2018-03-31T11:38:21.929Z,3.70
2018-03-31T11:40:48.041Z,3.90
2018-03-31T11:43:14.138Z,5.33
2018-03-31T11:45:40.233Z,6.33
2018-03-31T11:48:06.357Z,4.70
2018-03-31T11:50:32.435Z,4.00
2018-03-31T11:52:58.569Z,4.20
2018-03-31T11:55:24.689Z,3.97
2018-03-31T11:57:51.542Z,4.40
2018-03-31T12:00:17.661Z,4.53
2018-03-31T12:02:44.625Z,4.57
2018-03-31T12:05:10.746Z,4.77
2018-03-31T12:07:36.850Z,5.57
2018-03-31T12:10:03.043Z,5.37
2018-03-31T12:12:29.909Z,6.10
2018-03-31T12:14:56.014Z,5.67
2018-03-31T12:17:22.861Z,4.57
2018-03-31T12:19:48.969Z,4.23
2018-03-31T12:22:15.869Z,4.63
2018-03-31T12:24:42.805Z,3.97
2018-03-31T12:27:08.930Z,4.67
2018-03-31T12:29:35.077Z,4.57
2018-03-31T12:32:01.236Z,4.40
2018-03-31T12:34:27.401Z,4.47
2018-03-31T12:36:53.466Z,4.30
2018-03-31T12:39:19.574Z,5.73
2018-03-31T12:41:45.702Z,4.60
2018-03-31T12:44:12.549Z,4.10
2018-03-31T12:46:38.645Z,4.00
2018-03-31T12:49:04.742Z,5.97
2018-03-31T12:51:30.893Z,3.83
2018-03-31T12:53:57.014Z,3.80
2018-03-31T12:56:23.859Z,4.07
2018-03-31T12:58:50.094Z,3.57
2018-03-31T13:01:16.972Z,3.70
2018-03-31T13:03:43.126Z,3.20
2018-03-31T13:06:09.260Z,4.17
2018-03-31T13:08:35.380Z,3.30
2018-03-31T13:11:01.662Z,3.20
2018-03-31T13:13:27.778Z,3.33
2018-03-31T13:15:54.614Z,3.53
2018-03-31T13:18:20.751Z,3.73
2018-03-31T13:20:46.874Z,4.00
2018-03-31T13:23:13.723Z,3.40
2018-03-31T13:25:40.598Z,3.10
2018-03-31T13:28:07.449Z,3.73
2018-03-31T13:30:34.330Z,3.93
2018-03-31T13:33:00.446Z,3.60
2018-03-31T13:35:26.558Z,3.70
2018-03-31T13:37:52.697Z,3.50
2018-03-31T13:40:19.557Z,4.60
2018-03-31T13:42:45.678Z,3.43
2018-03-31T13:45:11.788Z,3.87
2018-03-31T13:47:37.929Z,4.23
2018-03-31T13:50:04.075Z,3.97
2018-03-31T13:52:30.190Z,3.77
2018-03-31T13:54:56.308Z,3.80
2018-03-31T13:57:23.154Z,4.50
2018-03-31T13:59:50.094Z,3.40
2018-03-31T14:02:16.190Z,3.30
2018-03-31T14:04:42.300Z,3.30
2018-03-31T14:07:09.162Z,3.70
2018-03-31T14:09:36.105Z,3.33
2018-03-31T14:12:02.976Z,3.40
2018-03-31T14:14:29.816Z,2.87
2018-03-31T14:16:56.664Z,2.80
2018-03-31T14:19:26.310Z,3.10
2018-03-31T14:21:53.146Z,3.50
2018-03-31T14:24:19.229Z,5.70
2018-03-31T14:26:45.337Z,4.50
2018-03-31T14:29:11.477Z,4.30
2018-03-31T14:31:38.324Z,4.67
2018-03-31T14:34:05.181Z,4.70
2018-03-31T14:36:31.300Z,4.17
2018-03-31T14:39:00.730Z,4.57
2018-03-31T14:41:26.805Z,4.40
2018-03-31T14:43:52.937Z,5.13
2018-03-31T14:46:19.045Z,5.53
2018-03-31T14:48:45.899Z,5.03
2018-03-31T14:51:12.746Z,5.80
2018-03-31T14:53:38.848Z,5.10
2018-03-31T14:56:04.985Z,4.00
2018-03-31T14:58:33.565Z,4.60
2018-03-31T15:01:02.888Z,3.67
2018-03-31T15:03:28.993Z,4.00
2018-03-31T15:05:55.838Z,3.10
2018-03-31T15:08:23.521Z,3.13
2018-03-31T15:10:50.387Z,2.70
2018-03-31T15:13:17.251Z,2.70
2018-03-31T15:15:46.886Z,3.37
2018-03-31T15:18:13.710Z,4.40
2018-03-31T15:20:39.804Z,4.23
2018-03-31T15:23:05.931Z,5.00
2018-03-31T15:25:32.042Z,4.00
2018-03-31T15:27:58.162Z,7.27
2018-03-31T15:30:24.345Z,5.97
2018-03-31T15:32:50.445Z,4.33
2018-03-31T15:35:19.265Z,4.90
2018-03-31T15:37:47.517Z,5.80
2018-03-31T15:40:13.642Z,5.73
2018-03-31T15:42:39.760Z,4.67
2018-03-31T15:45:05.872Z,5.10
2018-03-31T15:47:32.767Z,4.80
2018-03-31T15:49:58.882Z,4.67
2018-03-31T15:52:28.296Z,5.00
2018-03-31T15:54:54.414Z,5.40
2018-03-31T15:57:20.512Z,5.87
2018-03-31T15:59:46.629Z,5.37
2018-03-31T16:02:12.727Z,6.10
2018-03-31T16:04:38.837Z,5.97
2018-03-31T16:07:05.024Z,6.40
2018-03-31T16:09:31.157Z,5.87
2018-03-31T16:11:57.267Z,6.90
2018-03-31T16:14:24.440Z,5.20
2018-03-31T16:16:51.381Z,4.90
2018-03-31T16:19:17.473Z,6.27
2018-03-31T16:21:43.602Z,6.00
2018-03-31T16:24:09.753Z,6.77
2018-03-31T16:26:35.879Z,5.50
2018-03-31T16:29:02.091Z,5.50
2018-03-31T16:31:29.004Z,7.10
2018-03-31T16:33:55.105Z,6.53
2018-03-31T16:36:21.205Z,6.50
2018-03-31T16:38:48.286Z,7.30
2018-03-31T16:41:15.154Z,6.00
2018-03-31T16:43:42.002Z,9.33
2018-03-31T16:46:08.191Z,7.30
2018-03-31T16:48:34.304Z,7.30
2018-03-31T16:51:00.418Z,6.87
2018-03-31T16:53:27.281Z,6.73
2018-03-31T16:55:55.038Z,6.80
2018-03-31T16:58:21.157Z,7.07
2018-03-31T17:00:47.258Z,8.40
2018-03-31T17:03:14.110Z,7.63
2018-03-31T17:05:40.961Z,8.50
2018-03-31T17:08:07.105Z,7.30
2018-03-31T17:10:33.254Z,6.40
2018-03-31T17:13:02.802Z,7.67
2018-03-31T17:15:28.942Z,7.30
2018-03-31T17:17:55.083Z,8.90
2018-03-31T17:20:21.242Z,7.60
2018-03-31T17:22:47.345Z,7.57
2018-03-31T17:25:14.205Z,7.03
2018-03-31T17:27:40.333Z,8.00
2018-03-31T17:30:06.500Z,8.90
2018-03-31T17:32:32.674Z,9.60
2018-03-31T17:34:58.774Z,9.13
2018-03-31T17:37:24.915Z,7.70
2018-03-31T17:39:51.095Z,8.57
2018-03-31T17:42:17.998Z,9.30
2018-03-31T17:44:44.154Z,7.17
2018-03-31T17:47:10.273Z,7.73
2018-03-31T17:49:36.385Z,7.10
2018-03-31T17:52:02.594Z,8.27
2018-03-31T17:54:28.710Z,7.00
2018-03-31T17:56:54.845Z,8.67
2018-03-31T17:59:22.022Z,7.50
2018-03-31T18:01:48.918Z,7.60
2018-03-31T18:04:15.056Z,7.70
2018-03-31T18:06:41.939Z,7.13
2018-03-31T18:09:08.051Z,7.57
2018-03-31T18:11:34.251Z,8.40
2018-03-31T18:14:00.395Z,8.30
2018-03-31T18:16:26.519Z,8.13
2018-03-31T18:18:52.626Z,7.43
2018-03-31T18:21:19.476Z,8.13
2018-03-31T18:23:45.601Z,6.77
2018-03-31T18:26:11.690Z,8.57
2018-03-31T18:28:37.838Z,7.97
2018-03-31T18:31:03.983Z,7.83
2018-03-31T18:33:30.091Z,8.17
2018-03-31T18:35:56.178Z,9.63
2018-03-31T18:38:23.796Z,9.00
2018-03-31T18:40:49.958Z,9.80
2018-03-31T18:43:16.090Z,11.17
2018-03-31T18:45:42.221Z,9.00
2018-03-31T18:48:08.359Z,12.20
2018-03-31T18:50:34.543Z,10.60
2018-03-31T18:53:00.717Z,10.40
2018-03-31T18:55:26.804Z,11.30
2018-03-31T18:57:52.902Z,11.87
2018-03-31T19:00:18.993Z,10.80
2018-03-31T19:02:45.152Z,12.57
2018-03-31T19:05:11.204Z,11.17
2018-03-31T19:07:38.243Z,11.97
2018-03-31T19:10:04.438Z,11.83
2018-03-31T19:12:30.713Z,10.97
2018-03-31T19:14:57.653Z,11.20
2018-03-31T19:17:23.821Z,11.07
2018-03-31T19:19:52.270Z,12.10
2018-03-31T19:22:18.380Z,14.23
2018-03-31T19:24:51.386Z,13.30
2018-03-31T19:27:17.506Z,13.57
2018-03-31T19:29:44.354Z,12.57
2018-03-31T19:32:11.513Z,13.40
2018-03-31T19:34:38.408Z,11.80
2018-03-31T19:37:06.291Z,13.80
2018-03-31T19:39:38.626Z,17.70
2018-03-31T19:42:04.715Z,20.23
2018-03-31T19:44:30.866Z,24.40
2018-03-31T19:46:56.946Z,22.13
2018-03-31T19:49:23.021Z,29.33
2018-03-31T19:51:49.125Z,32.13
2018-03-31T19:54:16.038Z,33.93
2018-03-31T19:56:42.369Z,34.90
2018-03-31T19:59:09.239Z,33.80
2018-03-31T20:01:35.372Z,39.00
2018-03-31T20:04:01.508Z,37.87
2018-03-31T20:06:27.640Z,37.57
2018-03-31T20:08:53.743Z,40.43
2018-03-31T20:11:20.594Z,40.47
2018-03-31T20:13:46.708Z,48.80
2018-03-31T20:16:13.844Z,54.03
2018-03-31T20:18:39.978Z,55.90
2018-03-31T20:21:06.130Z,54.20
2018-03-31T20:23:34.092Z,52.63
2018-03-31T20:26:00.229Z,53.10
2018-03-31T20:28:26.336Z,50.23
2018-03-31T20:30:52.445Z,51.73
2018-03-31T20:33:18.570Z,50.60
2018-03-31T20:35:44.673Z,51.37
2018-03-31T20:38:10.789Z,51.43
2018-03-31T20:40:36.927Z,50.03
2018-03-31T20:43:03.074Z,47.10
2018-03-31T20:45:29.189Z,50.30
2018-03-31T20:47:56.094Z,48.03
2018-03-31T20:50:22.332Z,39.80
2018-03-31T20:52:48.480Z,37.43
2018-03-31T20:55:14.611Z,36.27
2018-03-31T20:57:41.469Z,24.60
2018-03-31T21:00:07.612Z,18.20
2018-03-31T21:02:33.842Z,15.80
2018-03-31T21:04:59.926Z,15.87
2018-03-31T21:07:27.130Z,15.90
2018-03-31T21:09:53.346Z,16.80
2018-03-31T21:12:19.477Z,14.97
2018-03-31T21:14:45.615Z,17.20
2018-03-31T21:17:11.741Z,18.47
2018-03-31T21:19:37.894Z,16.20
2018-03-31T21:22:04.750Z,16.70
2018-03-31T21:24:30.877Z,18.73
2018-03-31T21:26:57.718Z,16.83
2018-03-31T21:29:24.565Z,15.93
2018-03-31T21:31:50.730Z,15.60
2018-03-31T21:34:17.634Z,16.00
2018-03-31T21:36:43.765Z,16.53
2018-03-31T21:39:09.861Z,17.83
2018-03-31T21:41:35.972Z,16.90
2018-03-31T21:44:02.842Z,16.30
2018-03-31T21:46:29.702Z,16.60
2018-03-31T21:48:56.528Z,18.50
2018-03-31T21:51:22.642Z,17.70
2018-03-31T21:53:48.781Z,18.83
2018-03-31T21:56:15.142Z,18.30
2018-03-31T21:58:42.968Z,18.63
2018-03-31T22:01:09.094Z,20.43
2018-03-31T22:03:35.195Z,20.80
2018-03-31T22:06:01.318Z,21.00
2018-03-31T22:08:27.429Z,21.43
2018-03-31T22:10:53.565Z,24.90
2018-03-31T22:13:25.737Z,23.52
2018-03-31T22:15:51.849Z,23.67
2018-03-31T22:18:18.723Z,23.40
2018-03-31T22:20:44.846Z,24.17
2018-03-31T22:23:11.678Z,23.73
2018-03-31T22:25:37.801Z,25.40
2018-03-31T22:28:03.910Z,28.73
2018-03-31T22:30:30.030Z,28.20
2018-03-31T22:32:56.128Z,25.60
2018-03-31T22:35:22.245Z,23.60
2018-03-31T22:37:48.482Z,22.43
2018-03-31T22:40:14.588Z,22.33
2018-03-31T22:42:41.441Z,22.13
2018-03-31T22:45:09.514Z,22.73
2018-03-31T22:47:36.390Z,22.00
2018-03-31T22:50:02.685Z,21.60
2018-03-31T22:52:30.274Z,23.27
2018-03-31T22:54:56.373Z,24.05
2018-03-31T22:57:22.518Z,23.40
2018-03-31T22:59:48.633Z,23.03
2018-03-31T23:02:14.717Z,22.77
2018-03-31T23:04:40.824Z,22.60
2018-03-31T23:07:06.954Z,23.90
2018-03-31T23:09:33.045Z,23.43
2018-03-31T23:11:59.917Z,22.63
2018-03-31T23:14:26.783Z,21.83
2018-03-31T23:16:53.632Z,22.73
2018-03-31T23:19:19.769Z,22.85
2018-03-31T23:21:45.897Z,21.47
2018-03-31T23:24:12.017Z,22.23
2018-03-31T23:26:38.119Z,24.50
2018-03-31T23:29:06.244Z,23.60
2018-03-31T23:31:32.356Z,22.37
2018-03-31T23:33:58.497Z,24.47
2018-03-31T23:36:24.615Z,24.90
2018-03-31T23:38:50.718Z,23.37
2018-03-31T23:41:16.917Z,26.70
2018-03-31T23:43:43.121Z,27.70
2018-03-31T23:46:09.287Z,27.40
2018-03-31T23:48:35.482Z,27.80
2018-03-31T23:51:01.609Z,28.27
2018-03-31T23:53:27.862Z,29.20
2018-03-31T23:55:56.497Z,29.25
2018-03-31T23:58:22.621Z,27.33
